createdAt,value
2018-07-04T00:01:24.611Z,5.33
2018-07-04T00:04:30.168Z,5.37
2018-07-04T00:07:35.207Z,5.50
2018-07-04T00:10:40.835Z,5.13
2018-07-04T00:13:46.113Z,5.17
2018-07-04T00:16:51.828Z,4.60
2018-07-04T00:19:57.397Z,5.00
2018-07-04T00:23:02.798Z,5.07
2018-07-04T00:26:08.276Z,5.60
2018-07-04T00:29:13.781Z,5.00
2018-07-04T00:32:19.257Z,5.80
2018-07-04T00:35:24.509Z,5.17
2018-07-04T00:38:29.797Z,5.53
2018-07-04T00:41:35.495Z,5.73
2018-07-04T00:44:41.199Z,5.53
2018-07-04T00:47:46.623Z,5.20
2018-07-04T00:50:54.989Z,5.70
2018-07-04T00:54:00.121Z,5.90
2018-07-04T00:57:05.260Z,5.33
2018-07-04T01:00:10.774Z,5.80
2018-07-04T01:03:16.320Z,5.80
2018-07-04T01:06:21.595Z,6.03
2018-07-04T01:09:26.777Z,6.33
2018-07-04T01:12:40.418Z,5.97
2018-07-04T01:15:43.655Z,6.00
2018-07-04T01:18:48.844Z,5.67
2018-07-04T01:21:54.541Z,6.40
2018-07-04T01:25:00.261Z,6.60
2018-07-04T01:28:05.964Z,6.03
2018-07-04T01:31:11.274Z,6.50
2018-07-04T01:34:16.535Z,6.03
2018-07-04T01:37:22.054Z,6.73
2018-07-04T01:40:27.519Z,6.63
2018-07-04T01:43:32.547Z,6.27
2018-07-04T01:46:38.370Z,6.80
2018-07-04T01:49:43.988Z,6.57
2018-07-04T01:52:51.624Z,7.37
2018-07-04T01:55:54.774Z,7.10
2018-07-04T01:58:59.916Z,7.07
2018-07-04T02:02:05.291Z,6.70
2018-07-04T02:05:10.752Z,7.03
2018-07-04T02:08:15.941Z,6.77
2018-07-04T02:11:21.523Z,6.77
2018-07-04T02:14:26.875Z,7.30
2018-07-04T02:17:32.574Z,6.90
2018-07-04T02:20:38.365Z,7.47
2018-07-04T02:23:43.996Z,7.80
2018-07-04T02:26:49.289Z,8.30
2018-07-04T02:29:54.492Z,7.63
2018-07-04T02:33:00.125Z,6.80
2018-07-04T02:36:05.561Z,6.97
2018-07-04T02:39:12.669Z,7.37
2018-07-04T02:42:16.476Z,8.43
2018-07-04T02:45:22.084Z,7.13
2018-07-04T02:48:27.287Z,7.77
2018-07-04T02:51:32.707Z,7.60
2018-07-04T02:54:38.284Z,8.10
2018-07-04T02:57:43.581Z,7.53
2018-07-04T03:00:51.938Z,7.83
2018-07-04T03:03:57.226Z,7.93
2018-07-04T03:07:02.662Z,8.03
2018-07-04T03:10:08.246Z,8.40
2018-07-04T03:13:13.590Z,8.20
2018-07-04T03:16:19.242Z,8.43
2018-07-04T03:19:24.449Z,9.63
2018-07-04T03:22:30.039Z,8.73
2018-07-04T03:25:37.846Z,9.03
2018-07-04T03:28:46.017Z,8.50
2018-07-04T03:31:48.370Z,9.03
2018-07-04T03:34:53.696Z,9.07
2018-07-04T03:37:59.119Z,9.60
2018-07-04T03:41:04.693Z,8.87
2018-07-04T03:44:10.458Z,9.13
2018-07-04T03:47:15.837Z,10.13
2018-07-04T03:50:21.176Z,9.37
2018-07-04T03:53:26.544Z,9.87
2018-07-04T03:56:32.017Z,9.90
2018-07-04T03:59:37.323Z,9.73
2018-07-04T04:02:42.736Z,11.68
2018-07-04T04:05:48.614Z,10.10
2018-07-04T04:08:53.974Z,9.23
2018-07-04T04:11:59.729Z,9.97
2018-07-04T04:15:07.254Z,10.30
2018-07-04T04:18:12.937Z,10.53
2018-07-04T04:21:18.196Z,11.68
2018-07-04T04:24:23.457Z,10.50
2018-07-04T04:27:28.709Z,10.40
2018-07-04T04:30:34.064Z,10.03
2018-07-04T04:33:39.665Z,10.30
2018-07-04T04:36:45.077Z,9.57
2018-07-04T04:39:50.761Z,9.97
2018-07-04T04:42:56.417Z,10.67
2018-07-04T04:46:02.131Z,10.80
2018-07-04T04:49:07.730Z,10.60
2018-07-04T04:52:13.264Z,10.57
2018-07-04T04:55:18.692Z,10.87
2018-07-04T04:58:24.168Z,10.23
2018-07-04T05:01:29.554Z,11.17
2018-07-04T05:04:35.182Z,10.37
2018-07-04T05:07:40.937Z,11.03
2018-07-04T05:10:46.455Z,11.93
2018-07-04T05:13:52.154Z,10.43
2018-07-04T05:16:57.545Z,11.60
2018-07-04T05:20:02.887Z,10.60
2018-07-04T05:23:08.074Z,11.50
2018-07-04T05:26:13.386Z,10.90
2018-07-04T05:29:18.678Z,10.50
2018-07-04T05:32:23.906Z,12.15
2018-07-04T05:35:29.466Z,11.60
2018-07-04T05:38:34.695Z,10.23
2018-07-04T05:41:40.071Z,10.77
2018-07-04T05:44:45.421Z,10.60
2018-07-04T05:47:50.658Z,11.47
2018-07-04T05:50:55.865Z,11.17
2018-07-04T05:54:01.333Z,10.17
2018-07-04T05:57:06.996Z,11.30
2018-07-04T06:00:14.880Z,9.90
2018-07-04T06:03:20.289Z,11.30
2018-07-04T06:06:25.960Z,11.10
2018-07-04T06:09:31.527Z,10.33
2018-07-04T06:12:36.848Z,9.90
2018-07-04T06:15:42.235Z,9.87
2018-07-04T06:18:47.864Z,10.93
2018-07-04T06:21:53.197Z,10.20
2018-07-04T06:24:58.722Z,10.97
2018-07-04T06:28:04.479Z,10.23
2018-07-04T06:31:10.262Z,10.43
2018-07-04T06:34:15.520Z,9.73
2018-07-04T06:37:20.620Z,10.03
2018-07-04T06:39:50.464Z,9.50
2018-07-04T06:42:18.270Z,8.97
2018-07-04T06:44:46.241Z,8.37
2018-07-04T06:47:14.043Z,8.70
2018-07-04T06:49:41.871Z,8.03
2018-07-04T06:52:09.734Z,8.40
2018-07-04T06:54:37.620Z,7.85
2018-07-04T06:57:07.503Z,8.03
2018-07-04T06:59:33.532Z,7.92
2018-07-04T07:02:09.984Z,7.92
2018-07-04T07:05:15.603Z,7.05
2018-07-04T07:08:21.249Z,6.80
2018-07-04T07:11:26.793Z,7.40
2018-07-04T07:14:32.579Z,7.37
2018-07-04T07:17:37.736Z,7.00
2018-07-04T07:20:43.047Z,6.50
2018-07-04T07:23:48.548Z,7.37
2018-07-04T07:26:54.124Z,6.75
2018-07-04T07:29:59.592Z,6.08
2018-07-04T07:33:05.086Z,6.30
2018-07-04T07:36:10.772Z,6.17
2018-07-04T07:39:18.870Z,5.47
2018-07-04T07:42:24.272Z,5.70
2018-07-04T07:45:29.543Z,5.15
2018-07-04T07:48:35.000Z,5.47
2018-07-04T07:51:40.278Z,5.37
2018-07-04T07:54:45.808Z,5.72
2018-07-04T07:57:51.348Z,4.78
2018-07-04T08:00:56.885Z,4.78
2018-07-04T08:04:02.152Z,4.80
2018-07-04T08:07:07.621Z,4.55
2018-07-04T08:10:14.813Z,4.97
2018-07-04T08:13:20.297Z,4.30
2018-07-04T08:16:25.843Z,3.87
2018-07-04T08:19:31.123Z,4.22
2018-07-04T08:22:36.608Z,3.92
2018-07-04T08:25:41.756Z,3.25
2018-07-04T08:28:47.080Z,3.45
2018-07-04T08:31:52.871Z,3.90
2018-07-04T08:34:58.297Z,3.25
2018-07-04T08:38:05.757Z,3.12
2018-07-04T08:41:11.892Z,2.77
2018-07-04T08:44:17.485Z,3.27
2018-07-04T08:47:22.834Z,3.45
2018-07-04T08:50:28.053Z,3.12
2018-07-04T08:53:33.248Z,2.77
2018-07-04T08:56:38.846Z,2.75
2018-07-04T08:59:25.361Z,2.80
2018-07-04T09:02:32.681Z,2.67
2018-07-04T09:05:37.957Z,2.70
2018-07-04T09:08:43.333Z,2.85
2018-07-04T09:11:48.613Z,2.72
2018-07-04T09:14:53.680Z,2.80
2018-07-04T09:17:59.234Z,2.83
2018-07-04T09:21:04.456Z,2.98
2018-07-04T09:24:09.751Z,2.77
2018-07-04T09:27:15.496Z,2.80
2018-07-04T09:30:20.750Z,3.08
2018-07-04T09:33:26.103Z,3.15
2018-07-04T09:36:31.599Z,2.65
2018-07-04T09:39:36.721Z,3.45
2018-07-04T09:42:41.978Z,2.80
2018-07-04T09:45:47.491Z,2.70
2018-07-04T09:48:53.004Z,3.35
2018-07-04T09:51:58.444Z,2.80
2018-07-04T09:55:03.762Z,2.90
2018-07-04T09:58:08.842Z,2.83
2018-07-04T10:01:25.053Z,3.22
2018-07-04T10:04:30.920Z,3.00
2018-07-04T10:07:36.450Z,3.30
2018-07-04T10:10:41.834Z,2.98
2018-07-04T10:13:47.360Z,2.67
2018-07-04T10:16:52.896Z,3.25
2018-07-04T10:19:58.563Z,2.35
2018-07-04T10:23:04.125Z,3.37
2018-07-04T10:26:09.533Z,3.20
2018-07-04T10:29:15.026Z,3.02
2018-07-04T10:32:20.814Z,3.15
2018-07-04T10:35:39.706Z,3.10
2018-07-04T10:46:11.705Z,2.77
2018-07-04T10:49:49.679Z,2.72
2018-07-04T10:52:56.964Z,2.80
2018-07-04T10:55:21.013Z,2.45
2018-07-04T10:56:18.983Z,2.67
2018-07-04T10:59:29.561Z,2.70
2018-07-04T11:02:58.155Z,3.10
2018-07-04T11:10:02.514Z,3.30
2018-07-04T11:13:04.371Z,2.85
2018-07-04T11:13:11.339Z,2.90
2018-07-04T11:16:30.446Z,3.05
2018-07-04T11:23:27.867Z,3.37
2018-07-04T11:26:45.663Z,3.75
2018-07-04T11:30:28.302Z,2.92
2018-07-04T11:34:15.174Z,3.27
2018-07-04T11:41:02.868Z,2.85
2018-07-04T11:43:56.904Z,3.02
2018-07-04T11:46:49.922Z,3.33
2018-07-04T11:49:36.066Z,3.33
2018-07-04T11:52:37.677Z,3.20
2018-07-04T11:55:23.389Z,2.90
2018-07-04T11:57:58.724Z,3.08
2018-07-04T12:03:38.944Z,3.22
2018-07-04T12:16:08.873Z,3.45
2018-07-04T12:19:00.281Z,3.20
2018-07-04T12:25:48.190Z,3.00
2018-07-04T12:27:53.978Z,3.27
2018-07-04T12:31:03.232Z,3.00
2018-07-04T12:34:07.425Z,3.08
2018-07-04T12:40:19.036Z,3.08
2018-07-04T12:43:00.909Z,2.90
2018-07-04T12:50:28.665Z,2.90
2018-07-04T12:55:48.724Z,3.12
2018-07-04T12:59:22.784Z,3.00
2018-07-04T13:06:22.561Z,2.83
2018-07-04T13:07:05.390Z,2.85
2018-07-04T13:17:40.768Z,3.42
2018-07-04T13:20:53.497Z,3.10
2018-07-04T13:23:53.539Z,3.00
2018-07-04T13:27:01.279Z,3.27
2018-07-04T13:33:54.349Z,3.58
2018-07-04T13:40:41.614Z,3.15
2018-07-04T13:47:48.799Z,3.20
2018-07-04T13:51:17.471Z,3.42
2018-07-04T13:59:45.326Z,3.40
2018-07-04T14:01:22.676Z,3.15
2018-07-04T14:04:50.190Z,3.55
2018-07-04T14:08:50.531Z,3.30
2018-07-04T14:12:10.828Z,3.52
2018-07-04T14:15:50.843Z,3.45
2018-07-04T14:22:36.271Z,3.70
2018-07-04T14:33:27.250Z,3.72
2018-07-04T14:36:34.336Z,2.70
2018-07-04T14:40:16.406Z,2.65
2018-07-04T14:43:44.978Z,2.95
2018-07-04T14:47:06.210Z,2.98
2018-07-04T14:53:57.171Z,3.22
2018-07-04T14:57:27.760Z,3.20
2018-07-04T15:04:32.632Z,3.12
2018-07-04T15:07:50.397Z,2.98
2018-07-04T15:11:05.867Z,2.77
2018-07-04T15:14:36.014Z,2.80
2018-07-04T15:17:57.084Z,3.00
2018-07-04T15:21:14.292Z,2.70
2018-07-04T15:24:22.115Z,3.10
2018-07-04T15:27:44.056Z,3.20
2018-07-04T15:31:27.286Z,2.72
2018-07-04T15:38:27.957Z,2.92
2018-07-04T15:41:52.780Z,3.00
2018-07-04T15:45:08.492Z,2.98
2018-07-04T15:48:15.273Z,3.15
2018-07-04T15:51:57.387Z,2.70
2018-07-04T15:58:31.159Z,2.98
2018-07-04T16:01:52.340Z,2.70
2018-07-04T16:05:24.615Z,2.70
2018-07-04T16:08:22.391Z,2.77
2018-07-04T16:11:29.759Z,2.85
2018-07-04T16:21:46.464Z,2.60
2018-07-04T16:25:18.799Z,2.77
2018-07-04T16:28:40.675Z,2.67
2018-07-04T16:32:06.811Z,2.70
2018-07-04T16:38:44.279Z,2.58
2018-07-04T16:41:51.649Z,2.47
2018-07-04T16:44:58.091Z,2.30
2018-07-04T16:48:06.839Z,2.40
2018-07-04T16:52:22.913Z,2.33
2018-07-04T16:54:40.056Z,2.30
2018-07-04T16:57:58.432Z,2.30
2018-07-04T17:01:42.703Z,2.60
2018-07-04T17:04:54.279Z,2.22
2018-07-04T17:08:34.258Z,2.45
2018-07-04T17:12:18.287Z,2.50
2018-07-04T17:15:39.977Z,2.75
2018-07-04T17:22:30.162Z,2.47
2018-07-04T17:25:57.758Z,2.30
2018-07-04T17:33:01.744Z,2.52
2018-07-04T17:37:21.439Z,2.60
2018-07-04T17:40:12.171Z,2.50
2018-07-04T17:43:29.270Z,2.70
2018-07-04T17:46:41.012Z,2.20
2018-07-04T17:49:59.591Z,2.33
2018-07-04T17:56:54.546Z,2.60
2018-07-04T18:00:18.112Z,2.17
2018-07-04T18:03:36.163Z,2.30
2018-07-04T18:07:25.127Z,2.47
2018-07-04T18:10:41.612Z,2.58
2018-07-04T18:13:52.045Z,2.50
2018-07-04T18:17:28.380Z,2.70
2018-07-04T18:20:46.338Z,2.50
2018-07-04T18:23:55.419Z,2.47
2018-07-04T18:27:05.083Z,2.40
2018-07-04T18:30:27.753Z,2.52
2018-07-04T18:33:53.889Z,2.45
2018-07-04T18:48:03.809Z,2.70
2018-07-04T18:51:19.593Z,2.47
2018-07-04T18:54:51.685Z,2.30
2018-07-04T19:01:26.320Z,2.50
2018-07-04T19:04:59.045Z,2.40
2018-07-04T19:08:05.644Z,2.30
2018-07-04T19:11:18.129Z,2.30
2018-07-04T19:18:01.661Z,2.08
2018-07-04T19:21:16.793Z,2.10
2018-07-04T19:24:55.281Z,2.10
2018-07-04T19:27:54.353Z,2.30
2018-07-04T19:31:14.947Z,2.50
2018-07-04T19:34:44.692Z,1.80
2018-07-04T19:38:16.904Z,2.12
2018-07-04T19:41:38.574Z,2.20
2018-07-04T19:45:00.979Z,2.00
2018-07-04T19:48:01.468Z,1.97
2018-07-04T19:51:07.335Z,2.20
2018-07-04T19:54:13.087Z,2.40
2018-07-04T19:57:18.518Z,1.80
2018-07-04T20:00:23.703Z,2.10
2018-07-04T20:03:29.067Z,2.10
2018-07-04T20:06:34.348Z,2.00
2018-07-04T20:09:39.658Z,2.00
2018-07-04T20:12:45.175Z,2.10
2018-07-04T20:15:50.328Z,2.27
2018-07-04T20:18:55.829Z,2.33
2018-07-04T20:22:01.429Z,2.00
2018-07-04T20:25:07.116Z,2.07
2018-07-04T20:28:12.633Z,2.10
2018-07-04T20:31:18.208Z,2.33
2018-07-04T20:34:23.308Z,2.00
2018-07-04T20:37:28.482Z,2.00
2018-07-04T20:40:33.882Z,2.63
2018-07-04T20:43:39.559Z,2.40
2018-07-04T20:46:45.127Z,2.23
2018-07-04T20:49:50.884Z,2.30
2018-07-04T20:52:56.144Z,2.60
2018-07-04T20:56:01.452Z,2.17
2018-07-04T20:59:06.840Z,2.73
2018-07-04T21:02:12.208Z,2.37
2018-07-04T21:05:17.686Z,2.27
2018-07-04T21:08:23.478Z,2.50
2018-07-04T21:11:29.017Z,2.70
2018-07-04T21:14:37.468Z,2.40
2018-07-04T21:17:40.058Z,2.40
2018-07-04T21:20:45.538Z,2.33
2018-07-04T21:23:51.198Z,3.00
2018-07-04T21:26:56.532Z,2.70
2018-07-04T21:30:02.067Z,2.40
2018-07-04T21:33:07.292Z,2.93
2018-07-04T21:36:12.717Z,2.53
2018-07-04T21:39:18.198Z,2.33
2018-07-04T21:42:23.846Z,2.60
2018-07-04T21:45:29.505Z,2.67
2018-07-04T21:48:34.878Z,2.90
2018-07-04T21:51:42.611Z,2.70
2018-07-04T21:54:48.172Z,3.08
2018-07-04T21:57:53.550Z,2.67
2018-07-04T22:00:58.952Z,2.67
2018-07-04T22:04:04.621Z,2.83
2018-07-04T22:07:10.034Z,2.70
2018-07-04T22:10:15.486Z,3.00
2018-07-04T22:13:20.864Z,2.57
2018-07-04T22:16:26.265Z,2.63
2018-07-04T22:19:31.387Z,3.10
2018-07-04T22:22:37.013Z,2.73
2018-07-04T22:25:42.540Z,2.63
2018-07-04T22:28:47.912Z,2.77
2018-07-04T22:31:53.167Z,2.90
2018-07-04T22:34:58.638Z,2.60
2018-07-04T22:38:04.235Z,2.90
2018-07-04T22:41:10.065Z,3.00
2018-07-04T22:44:15.384Z,3.03
2018-07-04T22:47:20.759Z,3.23
2018-07-04T22:50:35.118Z,2.83
2018-07-04T22:53:40.699Z,2.90
2018-07-04T22:56:46.304Z,3.50
2018-07-04T22:59:51.675Z,3.00
2018-07-04T23:02:56.748Z,3.58
2018-07-04T23:06:02.130Z,3.50
2018-07-04T23:09:07.676Z,2.80
2018-07-04T23:12:12.959Z,3.50
2018-07-04T23:15:18.613Z,3.27
2018-07-04T23:18:23.915Z,3.10
2018-07-04T23:21:29.516Z,3.03
2018-07-04T23:24:37.628Z,3.10
2018-07-04T23:27:40.299Z,2.80
2018-07-04T23:30:45.746Z,3.43
2018-07-04T23:33:51.279Z,3.30
2018-07-04T23:36:56.648Z,3.30
2018-07-04T23:40:02.359Z,3.10
2018-07-04T23:43:07.783Z,3.50
2018-07-04T23:46:13.561Z,2.90
2018-07-04T23:49:18.872Z,3.00
2018-07-04T23:52:24.331Z,3.17
2018-07-04T23:55:29.643Z,3.40
2018-07-04T23:58:34.942Z,3.43
